Weather at Guadeloupe University Hospital Heliport

Public forecast

Using degrees Celsius for public forecast. Weather courtesy of forecast.io.

Closest aviation weather report (METAR) to Guadeloupe University Hospital Heliport

Report is more than 6 hours old.

Closest report is Pointe-à-Pitre Le Raizet International Airport, 1.8 nm (3.3 km) NNW. Retrieved 2022/09/17 19:00 UTC (20 days ago):

TFFR 171900Z AUTO VRB02KT 9999 BKN028/// BKN033/// BKN040/// ///CB 23/22 Q1011 TEMPO VRB20G30KT 1000 TSRA SCT008 BKN012CB

Closest aviation forecast (TAF) to Guadeloupe University Hospital Heliport

Forecast is more than 12 hours old.

Closest forecast is Pointe-à-Pitre Le Raizet International Airport, 1.8 nm (3.3 km) NNW. Retrieved 2022/09/17 18:24 UTC (20 days ago):

TAF TFFR 171600Z 1718/1818 14015KT 4000 SHRA SCT012 SCT018CB BKN030 TEMPO 1718/1812 VRB15G25KT 3000 SHRA BKN018TCU PROB40 TEMPO 1718/1804 VRB20G30KT 1000 TSRA SCT008 BKN012CB BECMG 1805/1807 13015KT 9999 SCT020